Extreme weather reports worldwide

High winds

Station
 
Location
 
Name
 
Wind
Knots
Gust
Knots
Vis
SM
Temp/Dew
C
Baro
inHg
METAR
 
KMWN 33 0.06 -5/-5 KMWN 190252Z 31033KT 1/16SM FZFG VV001 M05/M05 RMK VRY LGT ICG
TNM SCRM Isla Rey Jorge, AQ Teniente Rodolfo Marsh Martin Base 32 42 6.21 1/1 29.17 SCRM 190300Z 02032G42KT 9999 BKN004 BKN020 01/01 Q0988 NOSIG
KRVF 29 10 2/-5 30.09 KRVF 190335Z AUTO 03029KT 10SM BKN100 02/M05 A3009 RMK AO2
MPN EGYP Mount Pleasant, FK Mount Pleasant Airport 28 3.73 10/9 29.70 EGYP 190250Z 34028KT 6000 -DZ BKN005 10/09 Q1006
DLN KDLN Dillon, US Dillon Airport 28 37 6 2/-3 30.01 KDLN 190253Z AUTO 06028G37KT 6SM HZ CLR 02/M04 A3001 RMK AO2 PK WND 05037/0244 SLP168 T00221039 53003

Station
 
Location
 
Name
 
Wind
Knots
Gust
Knots
Vis
SM
Temp/Dew
C
Baro
inHg
METAR
 
COE KCOE Coeur d'Alene, US Coeur D'Alene - Pappy Boyington Field 28 35 10 7/2 30.05 KCOE 190256Z AUTO 01028G35KT 10SM FEW065 BKN100 08/02 A3005 RMK AO2 PK WND 04037/0158 SLP198 T00780022 53029
OMK KOMK Omak, US Omak Airport 27 36 10 20/0 30.00 KOMK 190253Z AUTO 36027G36KT 10SM CLR 20/01 A3000 RMK AO2 PK WND 36039/0203 SLP157 T02000006 53024
CWOB 27 33 -10/-11 29.80 CWOB 190300Z AUTO 04027G33KT ////SM OVC003 M10/M11 A2980
CXMM 27 0/-7 CXMM 190300Z AUTO 00027KT M01/M07 RMK AO1 SOG 01 8012 SLP341 T10081072
CWQK 26 16/ CWQK 190300Z AUTO 29026KT 16/ RMK AO1 PK WND 29029/0255 SLP181 T0162 56007
WKJ RJCW Wakkanai, JP Wakkanai Airport 26 6.21 4/3 29.23 RJCW 190300Z 30026KT 9999 -SHRA FEW009 BKN010 BKN020 04/03 Q0990
FAR KFAR Fargo, US Hector International Airport 25 32 10 -1/-8 30.11 KFAR 190319Z 36025G32KT 10SM OVC031 M02/M08 A3011 RMK AO2 PK WND 36032/0318 T10171083
KSZT Sandpoint, US Sandpoint Airport 25 33 10 5/0 30.24 KSZT 190335Z AUTO 02025G33KT 10SM SCT037 BKN065 OVC075 05/00 A3024 RMK AO2
EST KEST Estherville, US Estherville Municipal Airport 24 34 10 4/0 29.91 KEST 190252Z AUTO 35024G34KT 10SM OVC085 04/00 A2991 RMK AO2 PK WND 35037/0242 SLP134 T00440000 53034
FRM KFRM Fairmont, US Fairmont Municipal Airport 24 28 10 5/1 29.90 KFRM 190256Z AUTO 34024G28KT 10SM OVC080 06/01 A2990 RMK AO2 PK WND 34031/0237 SLP132 T00560011 53031
OFK KOFK Norfolk, US Karl Stefan Memorial Airport 24 36 10 11/1 29.92 KOFK 190256Z AUTO 36024G36KT 10SM FEW085 11/02 A2992 RMK AO2 PK WND 35036/0256 SLP134 T01110017 53022
KQDG 24 33 6.21 12/2 29.57 KQDG 190256Z AUTO 27024G33KT 9999 SCT045 13/02 A2957 RMK AO2 PK WND 28033/52 SLP015 T01290020 53003 $
SDJ RJSS Sendai, JP Sendai Airport 24 34 6.21 16/-1 29.70 RJSS 190300Z 27024G34KT 9999 FEW030 SCT050 16/M01 Q1006
SKA KSKA Spokane, US Fairchild Air Force Base 24 29 10 20/-3 29.95 KSKA 190317Z AUTO 05024G29KT 10SM BKN110 20/M03 A2995 RMK AO2 WSHFT 14 SLP138 $
ENUN 24 7/6 30.12 ENUN 190320Z AUTO 19024KT 9999NDV OVC008/// 07/06 Q1020 W07/S/
PLZ FAPE Port Elizabeth, ZA Port Elizabeth Airport 24 38 6.21 19/16 30.06 FAPE 190328Z 24024G38KT 9999 BKN012 19/16 Q1018 TEMPO 5000 -RA
HBA YMHB Hobart, AU Hobart International Airport 24 6.21 20/5 29.65 YMHB 190330Z 32024KT 9999 FEW045 SCT230 BKN270 20/05 Q1004 RF00.0/000.0
POY KPOY Powell, US Powell Municipal Airport 24 31 10 -1/-2 30.07 KPOY 190335Z AUTO 32024G31KT 10SM UP OVC004 M01/M02 A3007 RMK AO2
KVVV Ortonville, US Ortonville Municipal Martinson Field 24 30 10 -2/-6 30.07 KVVV 190335Z AUTO 35024G30KT 10SM OVC023 M02/M06 A3007 RMK AO2
SUX KSUX Sioux City, US Sioux Gateway Airport/Brigadier General Bud Day Field 23 33 10 11/2 29.87 KSUX 190252Z AUTO 02023G33KT 10SM BKN090 12/02 A2987 RMK AO2 PK WND 01033/0252 PRESRR SLP117 T01170022 53010
GEY KGEY Greybull, US South Big Horn County Airport 23 31 10 7/0 29.97 KGEY 190253Z AUTO 33023G31KT 10SM SCT100 08/01 A2997 RMK AO2 PK WND 33031/0247 SLP157 T00780006 53002
MHE KMHE Mitchell, US Mitchell Municipal Airport 23 31 10 2/-2 30.06 KMHE 190253Z AUTO 36023G31KT 10SM OVC021 03/M03 A3006 RMK AO2 PK WND 36032/0226 SLP188 T00281028 51039 $
LUR PALU Cape Lisburne, US Cape Lisburne LRRS Airport 23 29 10 1/-5 30.31 PALU 190255Z AUTO 17023G29KT 080V210 10SM CLR 02/M06 A3031 RMK AO2 PK WND 22031/0222 SLP264 T00151058 57005
KOTG Worthington, US Worthington Municipal Airport 23 30 10 1/0 29.94 KOTG 190256Z AUTO 36023G30KT 10SM -RA BKN015 OVC055 02/M01 A2994 RMK AO2 PK WND 35033/0242 RAB08E20B55UPB20E55 SLP152 P0000 60000 T00171006 53033 FZRANO
AOJ RJSA Aomori, JP Aomori Airport 23 37 6.21 13/3 29.56 RJSA 190300Z 25023G37KT 9999 FEW030 BKN040 13/03 Q1001
MSJ RJSM Misawa, JP Misawa Air Base 23 6.21 14/2 29.56 RJSM 190300Z 27023KT 9999 FEW020 BKN030 14/02 Q1001
ENHE 23 6.21 7/4 30.21 ENHE 190320Z 22023KT CAVOK 07/04 Q1023 W///S5
KEJ UNEE Kemerovo, RU Kemerovo Airport 23 35 5.59 -7/-12 29.73 UNEE 190330Z 28012G18MPS 9000 -SHSN BKN019CB M07/M12 Q1007 R23/690345 NOSIG RMK QFE732
REN UWOO Orenburg, RU Orenburg Central Airport 23 6.21 3/-8 30.18 UWOO 190330Z 11012MPS CAVOK 03/M08 Q1022 R08/65D NOSIG RMK QFE756/1008
KGWR Gwinner, US Gwinner Roger Melroe Field 23 10 -2/-7 30.13 KGWR 190335Z AUTO 36023KT 10SM OVC032 M02/M07 A3013 RMK A01
KGYF 23 10 19/14 30.01 KGYF 190335Z AUTO 01023KT 10SM SCT024 OVC060 19/14 A3001 RMK AO2 T01950145
KJKJ Moorhead, US Moorhead Municipal Airport 23 30 10 -1/-9 30.11 KJKJ 190335Z AUTO 36023G30KT 10SM SCT034 M01/M09 A3011 RMK AO2
KMOX Morris, US Morris Municipal - Charlie Schmidt Airport 23 32 10 -2/-7 30.04 KMOX 190335Z AUTO 34023G32KT 10SM SCT031 M02/M07 A3004 RMK AO2
K1KM 22 3 -1/-3 30.22 K1KM 190258Z AUTO 36022KT 3SM -SN OVC023 M02/M03 A3022 RMK AO2 PK WND 35029/43 SHSNE48SNB48 CIG 023V031 PRESRR SLP259 P0001 60010 T10181030 52027 $
CWBK 22 1/1 CWBK 190300Z AUTO 31022KT 02/01 RMK AO1 PK WND 32029/0204 SLP004 T00180011 53005
CWKK 22 -1/-2 CWKK 190300Z AUTO 01022KT M01/M02 RMK AO1 2PAST HR 1020 PK WND 02031/0236 SLP092 P0001 T10131024 50007
AUW KAUW Wausau, US Wausau Downtown Airport 22 30 10 11/2 29.68 KAUW 190330Z AUTO 28022G30KT 10SM -RA BKN080 OVC095 11/02 A2968 RMK AO2 PK WND 29030/0328 WSHFT 0310 RAB27 P0000 T01110022
NSL KDVP Slayton, US Slayton Municipal Airport 22 30 10 0/-2 29.98 KDVP 190333Z AUTO 35022G30KT 10SM OVC014 01/M02 A2998 RMK AO2 T00051021
BBB KBBB Benson, US Benson Municipal Airport 22 28 10 -1/-4 30.03 KBBB 190335Z AUTO 36022G28KT 10SM OVC026 M01/M04 A3003 RMK AO2
KSHL Sheldon, US Sheldon Regional Airport 22 28 10 3/0 29.95 KSHL 190335Z AUTO 35022G28KT 10SM BKN017 BKN055 OVC070 03/M00 A2995 RMK AO2
KU68 22 29 10 5/-2 30.07 KU68 190335Z AUTO 04022G29KT 10SM OVC065 05/M02 A3007 RMK AO2
ABR KABR Aberdeen, US Aberdeen Regional Airport 21 28 10 0/-8 30.12 KABR 190253Z AUTO 36021G28KT 10SM OVC036 01/M08 A3012 RMK AO2 PK WND 35030/0236 SLP209 T00061083 53020
OGG PHOG Kahului, US Kahului Airport 21 10 26/19 30.02 PHOG 190254Z 03021KT 10SM FEW070 26/19 A3002 RMK AO2 SLP170 T02610194 56014 $
K8D3 21 29 0/-6 30.08 K8D3 190256Z AUTO 36021G29KT M01/M07 A3008 RMK AO1 PK WND 35035/0237 SLP196 T10061067 51025 $
MML KMML Marshall, US Southwest Minnesota Regional Airport - Marshall/Ryan Field 21 29 10 1/-2 30.00 KMML 190256Z AUTO 35021G29KT 10SM OVC019 02/M03 A3000 RMK AO2 PK WND 36031/0222 SLP169 T00171028 53033 FZRANO